Time;durP1;ratioP1;P1;durP2;ratioP2;P2;SDS_P1;SDS_P2;PMS_P1;PMS_P2;Temp;Humidity;BMP_temperature;BMP_pressure;BME280_temperature;BME280_humidity;BME280_pressure;Samples;Min_cycle;Max_cycle;Signal;HPM_P1;HPM_P2
2021/12/18 00:02:15;;;;;;;37.60;19.45;;;;;;;1.84;74.55;97703.03;10290526;28;97750;-65
2021/12/18 00:07:18;;;;;;;34.20;19.08;;;;;;;1.80;74.46;97701.47;10292479;28;96860;-65
2021/12/18 00:12:22;;;;;;;36.33;20.38;;;;;;;1.76;74.80;97694.75;10294555;28;97241;-65
2021/12/18 00:17:25;;;;;;;36.53;20.60;;;;;;;1.71;75.11;97688.91;10292840;28;97315;-65
2021/12/18 00:22:27;;;;;;;33.63;19.08;;;;;;;1.69;75.08;97690.72;10290210;28;97747;-65
2021/12/18 00:27:32;;;;;;;35.15;20.48;;;;;;;1.66;75.06;97677.94;10285645;28;97312;-65
2021/12/18 00:32:35;;;;;;;37.15;20.58;;;;;;;1.61;75.17;97685.00;10289946;28;96895;-65
2021/12/18 00:37:38;;;;;;;34.50;19.02;;;;;;;1.60;75.17;97667.88;10296574;28;97128;-65
2021/12/18 00:42:47;;;;;;;35.33;20.20;;;;;;;1.61;75.58;97665.25;10296194;28;96915;-65
2021/12/18 00:47:50;;;;;;;36.95;21.17;;;;;;;1.58;75.29;97669.69;10289588;28;97161;-65
2021/12/18 00:52:53;;;;;;;39.08;20.98;;;;;;;1.55;75.15;97658.56;10296841;28;96964;-65
2021/12/18 00:57:57;;;;;;;37.15;19.42;;;;;;;1.55;75.05;97658.56;10294504;28;97844;-65
2021/12/18 01:03:02;;;;;;;38.83;20.27;;;;;;;1.55;75.31;97658.56;10292426;28;96801;-65
2021/12/18 01:08:05;;;;;;;39.17;20.30;;;;;;;1.52;75.17;97650.97;10287698;28;100762;-65
2021/12/18 01:13:14;;;;;;;37.40;21.15;;;;;;;1.47;75.46;97652.88;10293880;28;97834;-65
2021/12/18 01:23:38;;;;;;;38.95;20.77;;;;;;;1.39;75.48;97649.75;10289767;28;97935;-65
2021/12/18 01:28:42;;;;;;;36.25;20.48;;;;;;;1.40;75.62;97648.88;10296927;28;96939;-65
2021/12/18 01:33:45;;;;;;;41.22;21.52;;;;;;;1.40;75.46;97651.44;10298756;28;97164;-65
2021/12/18 01:38:48;;;;;;;37.45;21.33;;;;;;;1.38;75.41;97642.91;10300052;28;97448;-65
2021/12/18 01:54:38;;;;;;;40.03;22.10;;;;;;;1.31;75.76;97647.47;10297833;28;96867;-65
2021/12/18 01:59:47;;;;;;;36.63;20.67;;;;;;;1.38;75.59;97637.75;10296125;28;96842;-65
2021/12/18 02:04:50;;;;;;;40.10;21.20;;;;;;;1.34;75.44;97631.88;10295568;28;97549;-65
2021/12/18 02:10:01;;;;;;;38.83;21.65;;;;;;;1.34;75.62;97637.03;10296971;28;97131;-65
2021/12/18 02:20:39;;;;;;;39.90;23.13;;;;;;;1.40;75.29;97630.84;10279219;28;100130;-65
2021/12/18 02:25:45;;;;;;;34.00;19.63;;;;;;;1.45;75.25;97621.22;10292293;28;96753;-65
2021/12/18 02:30:50;;;;;;;38.20;21.20;;;;;;;1.45;75.54;97618.63;10297642;28;98714;-65
2021/12/18 02:35:57;;;;;;;39.60;21.80;;;;;;;1.43;75.84;97610.09;10298737;28;96895;-65
2021/12/18 02:41:08;;;;;;;39.47;21.10;;;;;;;1.46;75.92;97604.84;10292845;28;99028;-65
2021/12/18 02:46:17;;;;;;;36.97;20.40;;;;;;;1.51;75.61;97600.34;10291215;28;97814;-65
2021/12/18 02:51:22;;;;;;;35.42;21.40;;;;;;;1.51;75.31;97587.47;10288758;28;96819;-65
2021/12/18 02:56:25;;;;;;;38.63;21.83;;;;;;;1.48;76.14;97571.31;10288937;28;97508;-65
2021/12/18 03:01:28;;;;;;;38.80;21.33;;;;;;;1.47;75.54;97572.19;10289069;28;96961;-65
2021/12/18 03:06:36;;;;;;;39.55;21.65;;;;;;;1.43;75.58;97571.47;10287765;28;97094;-65
2021/12/18 03:27:45;;;;;;;40.60;22.05;;;;;;;1.26;75.68;97566.13;10128957;28;96935;-65
2021/12/18 03:32:49;;;;;;;38.15;20.98;;;;;;;1.28;75.97;97560.03;10126668;28;98887;-65
2021/12/18 03:37:54;;;;;;;36.97;20.92;;;;;;;1.23;76.37;97550.81;10130392;28;97156;-65
2021/12/18 03:42:57;;;;;;;41.90;22.48;;;;;;;1.26;75.95;97553.25;10131653;28;96940;-65
2021/12/18 03:47:59;;;;;;;38.13;21.10;;;;;;;1.26;75.92;97551.53;10121148;28;98378;-65
2021/12/18 03:53:04;;;;;;;39.67;22.23;;;;;;;1.27;75.97;97549.81;10126077;28;97049;-65
2021/12/18 03:58:07;;;;;;;37.40;20.65;;;;;;;1.28;75.87;97546.31;10131051;28;97847;-65
2021/12/18 04:03:10;;;;;;;36.67;21.83;;;;;;;1.21;76.08;97548.31;10162827;28;97125;-65
2021/12/18 04:08:14;;;;;;;38.97;21.95;;;;;;;1.23;76.45;97549.09;10252185;28;96884;-65
2021/12/18 04:13:17;;;;;;;39.70;21.50;;;;;;;1.23;76.04;97540.53;10252357;28;96834;-65
2021/12/18 04:18:19;;;;;;;42.88;22.42;;;;;;;1.20;75.95;97540.63;10254711;28;96785;-66
2021/12/18 04:23:24;;;;;;;36.75;21.77;;;;;;;1.23;76.10;97543.09;10257203;28;97917;-65
2021/12/18 04:28:27;;;;;;;37.75;21.20;;;;;;;1.23;76.09;97540.53;10261054;28;96807;-65
2021/12/18 04:33:29;;;;;;;37.15;21.40;;;;;;;1.26;75.85;97540.38;10253653;28;97812;-65
2021/12/18 04:38:34;;;;;;;39.78;21.80;;;;;;;1.29;75.61;97540.28;10256270;28;96878;-65
2021/12/18 04:43:37;;;;;;;37.87;21.33;;;;;;;1.30;75.90;97539.41;10262575;28;96848;-65
2021/12/18 04:48:40;;;;;;;36.13;21.27;;;;;;;1.29;75.84;97540.28;10248177;28;96846;-65
2021/12/18 04:53:44;;;;;;;38.10;21.83;;;;;;;1.32;75.46;97529.88;10254370;28;96958;-66
2021/12/18 04:58:46;;;;;;;36.95;21.48;;;;;;;1.29;75.50;97530.81;10253911;28;96928;-65
2021/12/18 05:03:50;;;;;;;41.28;21.83;;;;;;;1.28;75.97;97533.44;10287312;28;98438;-65
2021/12/18 05:08:54;;;;;;;38.70;21.58;;;;;;;1.31;75.76;97541.06;10293263;28;97027;-65
2021/12/18 05:13:57;;;;;;;41.90;22.85;;;;;;;1.28;75.88;97530.88;10295090;28;96778;-65
2021/12/18 05:19:01;;;;;;;38.25;21.80;;;;;;;1.25;75.82;97533.59;10295427;28;97188;-65
2021/12/18 05:24:06;;;;;;;37.65;21.38;;;;;;;1.23;75.82;97531.06;10298867;28;96873;-65
2021/12/18 05:29:09;;;;;;;36.63;20.67;;;;;;;1.24;76.31;97526.75;10294183;28;99243;-65
2021/12/18 05:34:20;;;;;;;39.72;21.20;;;;;;;1.21;76.53;97526.84;10291170;28;96890;-65
2021/12/18 05:39:25;;;;;;;39.80;22.52;;;;;;;1.23;76.00;97514.78;10299694;28;96824;-65
2021/12/18 05:44:28;;;;;;;;;;;;;;;1.24;75.85;97516.44;10291325;28;97308;-65
2021/12/18 05:49:31;;;;;;;40.40;21.30;;;;;;;1.22;75.61;97513.09;10298818;28;97099;-65
2021/12/18 05:54:36;;;;;;;38.63;22.73;;;;;;;1.20;75.85;97508.00;10293820;28;97210;-65
2021/12/18 05:59:39;;;;;;;39.83;22.17;;;;;;;1.24;75.90;97516.44;10291154;28;100030;-65
2021/12/18 06:04:42;;;;;;;38.47;22.20;;;;;;;1.21;76.41;97521.69;10297738;28;96816;-65
2021/12/18 06:09:46;;;;;;;38.60;22.85;;;;;;;1.18;75.65;97523.50;10288410;28;98999;-65
2021/12/18 06:14:49;;;;;;;35.90;20.50;;;;;;;1.12;76.17;97518.59;10290111;28;102016;-66
2021/12/18 06:19:52;;;;;;;37.90;21.23;;;;;;;1.17;75.94;97521.84;10292929;28;96862;-65
2021/12/18 06:24:56;;;;;;;37.65;21.92;;;;;;;1.09;76.61;97513.56;10291915;28;97360;-65
2021/12/18 06:29:59;;;;;;;37.67;21.33;;;;;;;1.13;75.88;97520.25;10290689;28;98745;-65
2021/12/18 06:35:02;;;;;;;40.30;23.20;;;;;;;1.15;76.46;97522.78;10293571;28;98578;-65
2021/12/18 06:40:08;;;;;;;39.75;22.27;;;;;;;1.12;76.12;97518.59;10283304;28;97202;-65
2021/12/18 06:45:12;;;;;;;39.67;21.92;;;;;;;1.05;76.03;97511.97;10290384;28;97862;-65
2021/12/18 06:50:15;;;;;;;42.38;23.58;;;;;;;1.07;76.23;97512.78;10288319;28;96887;-65
2021/12/18 06:55:20;;;;;;;42.00;21.63;;;;;;;1.08;76.42;97516.19;10291133;28;97682;-66
2021/12/18 07:00:24;;;;;;;40.60;23.43;;;;;;;1.06;76.31;97515.41;10290838;28;96840;-65
2021/12/18 07:05:27;;;;;;;37.27;21.97;;;;;;;1.12;76.18;97513.47;10287995;28;97298;-65
2021/12/18 07:10:32;;;;;;;42.65;21.50;;;;;;;1.16;75.84;97520.16;10293869;28;100500;-65
2021/12/18 07:15:35;;;;;;;41.10;22.40;;;;;;;1.16;76.33;97535.59;10289007;28;96759;-66
2021/12/18 07:20:38;;;;;;;38.97;21.95;;;;;;;1.20;76.13;97532.91;10291197;28;96732;-65
2021/12/18 07:25:42;;;;;;;42.33;22.95;;;;;;;1.20;76.06;97528.59;10294892;28;96707;-65
2021/12/18 07:30:45;;;;;;;37.80;21.23;;;;;;;1.22;75.86;97529.38;10298174;28;97964;-65
2021/12/18 07:35:49;;;;;;;41.05;21.83;;;;;;;1.24;75.96;97537.03;10296448;28;97132;-66
2021/12/18 07:40:54;;;;;;;34.63;20.48;;;;;;;1.27;76.02;97527.47;10295406;28;100020;-66
2021/12/18 07:45:57;;;;;;;35.43;20.13;;;;;;;1.28;75.70;97538.59;10297752;28;98067;-65
2021/12/18 07:51:00;;;;;;;37.88;21.48;;;;;;;1.30;75.88;97534.25;10294607;28;96781;-65
2021/12/18 07:56:05;;;;;;;37.17;21.42;;;;;;;1.34;76.00;97535.78;10272590;28;97227;-65
2021/12/18 08:01:08;;;;;;;37.37;21.77;;;;;;;1.33;75.83;97531.53;10284348;28;98071;-66
2021/12/18 08:06:12;;;;;;;35.97;21.77;;;;;;;1.41;75.84;97532.09;10286913;28;96910;-66
2021/12/18 08:11:16;;;;;;;35.92;21.33;;;;;;;1.49;75.24;97527.47;10286088;28;98197;-65
2021/12/18 08:16:24;;;;;;;35.13;21.27;;;;;;;1.54;75.82;97541.00;10286480;28;96912;-66
2021/12/18 08:21:26;;;;;;;36.05;20.83;;;;;;;1.58;75.67;97540.91;10283052;28;97878;-66
2021/12/18 08:26:30;;;;;;;36.58;20.45;;;;;;;1.60;75.46;97533.94;10286205;28;96959;-66
2021/12/18 08:31:33;;;;;;;34.95;20.27;;;;;;;1.59;75.74;97535.69;10286305;28;97976;-65
2021/12/18 08:36:36;;;;;;;36.03;21.55;;;;;;;1.68;75.55;97532.75;10284418;28;97110;-66
2021/12/18 08:41:42;;;;;;;37.85;21.98;;;;;;;1.67;75.60;97528.47;10286721;28;96738;-66
2021/12/18 08:46:45;;;;;;;34.47;21.13;;;;;;;1.65;75.35;97535.44;10289812;28;96850;-66
2021/12/18 08:51:48;;;;;;;34.22;20.35;;;;;;;1.67;75.61;97535.38;10277823;28;99599;-66
2021/12/18 08:56:52;;;;;;;34.53;19.73;;;;;;;1.63;75.45;97531.25;10288832;28;100532;-66
2021/12/18 09:01:55;;;;;;;33.17;19.77;;;;;;;1.62;75.31;97532.97;10296324;28;97528;-65
2021/12/18 09:06:57;;;;;;;33.97;19.67;;;;;;;1.61;75.08;97533.88;10299367;28;98005;-66
2021/12/18 09:12:02;;;;;;;34.20;20.35;;;;;;;1.69;75.58;97533.56;10303666;28;97360;-65
2021/12/18 09:17:05;;;;;;;35.10;20.25;;;;;;;1.75;75.12;97535.91;10282196;28;97177;-65
2021/12/18 09:22:09;;;;;;;34.05;20.40;;;;;;;1.75;75.28;97538.50;10294631;28;96845;-66
2021/12/18 09:27:15;;;;;;;31.05;18.27;;;;;;;1.74;74.88;97542.78;10291391;28;100414;-66
2021/12/18 09:32:18;;;;;;;32.05;19.25;;;;;;;1.75;75.06;97533.34;10296059;28;98016;-66
2021/12/18 09:37:21;;;;;;;33.90;20.15;;;;;;;1.82;74.88;97532.19;10298540;28;97109;-66
2021/12/18 09:42:25;;;;;;;32.72;19.08;;;;;;;1.84;74.73;97532.13;10291106;28;96740;-66
2021/12/18 09:47:28;;;;;;;33.63;20.13;;;;;;;1.82;75.09;97524.47;10290948;28;97638;-66
2021/12/18 09:52:33;;;;;;;32.55;19.08;;;;;;;1.84;75.03;97527.81;10288268;28;96882;-66
2021/12/18 09:57:38;;;;;;;32.83;19.23;;;;;;;1.94;74.62;97523.97;10289800;28;99247;-66
2021/12/18 10:02:41;;;;;;;33.88;20.48;;;;;;;2.04;74.30;97513.25;10290729;28;96847;-66
2021/12/18 10:07:44;;;;;;;31.48;18.35;;;;;;;2.08;74.42;97509.66;10294113;28;97996;-66
2021/12/18 10:13:03;;;;;;;30.98;18.10;;;;;;;1.95;74.39;97506.75;10292631;28;97050;-66
2021/12/18 10:18:08;;;;;;;33.30;19.83;;;;;;;2.04;74.40;97497.78;10289699;28;97365;-66
2021/12/18 10:23:11;;;;;;;29.00;17.90;;;;;;;2.22;73.66;97491.03;10292757;28;97050;-66
2021/12/18 10:28:18;;;;;;;34.85;19.80;;;;;;;2.26;73.55;97488.25;10291501;28;96934;-66
2021/12/18 10:33:27;;;;;;;31.88;18.38;;;;;;;2.28;73.45;97481.28;10291916;28;96823;-66
2021/12/18 10:38:39;;;;;;;33.15;19.77;;;;;;;2.27;74.17;97474.47;10293695;28;97212;-66
2021/12/18 10:43:56;;;;;;;31.23;18.85;;;;;;;2.41;73.79;97483.34;10287603;28;98444;-66
2021/12/18 10:49:03;;;;;;;31.10;19.65;;;;;;;2.53;73.01;97475.06;10288926;28;97204;-66
2021/12/18 10:54:08;;;;;;;29.98;17.73;;;;;;;2.61;73.18;97472.97;10290466;28;96884;-66
2021/12/18 10:59:23;;;;;;;29.08;18.30;;;;;;;2.69;73.08;97473.47;10298661;28;97358;-66
2021/12/18 11:04:27;;;;;;;29.80;17.83;;;;;;;2.75;73.16;97468.94;10284130;28;98688;-66
2021/12/18 11:09:34;;;;;;;32.38;18.50;;;;;;;2.73;73.41;97470.75;10294935;28;97622;-67
2021/12/18 11:14:40;;;;;;;30.90;18.10;;;;;;;2.73;72.98;97465.59;10287818;28;97317;-66
2021/12/18 11:19:44;;;;;;;32.00;19.00;;;;;;;2.81;72.81;97464.34;10299196;28;97646;-66
2021/12/18 11:24:54;;;;;;;31.17;18.55;;;;;;;2.88;72.41;97462.34;10282597;28;98703;-66
2021/12/18 11:30:02;;;;;;;31.27;17.17;;;;;;;2.92;72.96;97461.28;10286896;28;96734;-66
2021/12/18 11:35:09;;;;;;;29.80;17.90;;;;;;;2.99;72.92;97447.16;10294680;28;97411;-66
2021/12/18 11:40:15;;;;;;;30.05;17.70;;;;;;;3.07;72.10;97455.41;10304967;28;97052;-67
2021/12/18 11:45:19;;;;;;;31.63;18.27;;;;;;;3.14;72.21;97449.97;10288927;28;97035;-67
2021/12/18 11:50:25;;;;;;;31.30;18.38;;;;;;;3.18;71.97;97446.31;10288747;28;96799;-67
2021/12/18 11:55:30;;;;;;;26.80;16.85;;;;;;;3.25;72.40;97443.34;10291040;28;96877;-66
2021/12/18 12:00:47;;;;;;;29.65;17.95;;;;;;;3.35;72.21;97443.78;10299886;28;98575;-66
2021/12/18 12:05:51;;;;;;;29.73;17.38;;;;;;;3.43;71.07;97436.50;10295298;28;96950;-66
2021/12/18 12:11:27;;;;;;;29.80;18.38;;;;;;;3.40;71.52;97421.13;10315965;28;97351;-66
2021/12/18 12:17:06;;;;;;;34.50;20.48;;;;;;;3.45;71.95;97428.69;10293376;28;97069;-66
2021/12/18 12:22:12;;;;;;;29.20;17.88;;;;;;;3.52;72.06;97429.19;10284971;28;97825;-66
2021/12/18 12:27:29;;;;;;;28.77;18.17;;;;;;;3.56;71.03;97428.16;10286549;28;96828;-66
2021/12/18 12:32:35;;;;;;;32.03;18.67;;;;;;;3.59;70.91;97440.94;10290264;28;96994;-66
2021/12/18 12:37:40;;;;;;;32.53;18.63;;;;;;;3.63;71.19;97440.69;10291553;28;97401;-66
2021/12/18 12:43:15;;;;;;;26.60;17.60;;;;;;;3.70;71.74;97448.16;10303619;28;98396;-67
2021/12/18 12:48:21;;;;;;;30.23;18.60;;;;;;;3.72;71.22;97446.31;10304671;28;96860;-67
2021/12/18 12:53:49;;;;;;;26.42;17.38;;;;;;;3.86;70.78;97437.88;10298467;28;97254;-67
2021/12/18 12:59:22;;;;;;;28.38;17.55;;;;;;;3.91;70.40;97431.56;10318825;28;99623;-67
2021/12/18 13:04:26;;;;;;;28.92;16.88;;;;;;;3.96;70.74;97439.91;10309693;28;96781;-66
2021/12/18 13:09:29;;;;;;;26.85;17.55;;;;;;;3.97;70.38;97443.34;10303907;28;97364;-66
2021/12/18 13:14:37;;;;;;;27.77;16.92;;;;;;;3.98;70.66;97437.25;10294770;28;96911;-67
2021/12/18 13:19:52;;;;;;;30.60;18.73;;;;;;;4.02;69.96;97431.00;10294922;28;97266;-66
2021/12/18 13:25:01;;;;;;;;;;;;;;;4.05;69.77;97432.63;10291658;28;97578;-67
2021/12/18 13:30:12;;;;;;;29.88;17.92;;;;;;;3.96;70.79;97428.75;10295886;28;96762;-66
2021/12/18 13:35:18;;;;;;;30.05;17.65;;;;;;;3.91;70.25;97435.91;10290024;28;96978;-66
2021/12/18 13:40:21;;;;;;;27.65;17.52;;;;;;;3.88;70.47;97426.53;10305333;28;96836;-66
2021/12/18 13:45:24;;;;;;;32.10;18.67;;;;;;;3.90;71.21;97441.97;10302469;28;96693;-66
2021/12/18 13:50:28;;;;;;;29.80;17.77;;;;;;;4.00;71.21;97451.78;10299407;28;97002;-67
2021/12/18 13:55:34;;;;;;;31.70;18.23;;;;;;;3.91;71.43;97460.00;10298604;28;98638;-67
2021/12/18 14:01:02;;;;;;;30.33;18.88;;;;;;;3.85;70.19;97462.91;10291616;28;99071;-66
2021/12/18 14:06:15;;;;;;;27.80;18.27;;;;;;;3.63;70.46;97460.53;10286959;28;97738;-66
2021/12/18 14:11:26;;;;;;;30.23;18.85;;;;;;;3.62;70.13;97464.88;10296519;28;96808;-66
2021/12/18 14:16:30;;;;;;;32.13;18.73;;;;;;;3.43;69.35;97462.34;10290446;28;96885;-67
2021/12/18 14:21:38;;;;;;;31.23;18.20;;;;;;;3.12;70.00;97472.41;10293339;28;96891;-67
2021/12/18 14:26:42;;;;;;;30.33;17.95;;;;;;;2.97;70.21;97472.22;10291787;28;96826;-66
2021/12/18 14:31:52;;;;;;;26.45;16.42;;;;;;;2.90;70.08;97472.59;10296210;28;98987;-67
2021/12/18 14:37:06;;;;;;;30.27;18.10;;;;;;;2.86;69.86;97472.72;10283643;28;97130;-67
2021/12/18 14:42:16;;;;;;;28.67;16.65;;;;;;;2.77;69.69;97487.78;10291258;28;96892;-66
2021/12/18 14:47:23;;;;;;;30.55;17.35;;;;;;;2.61;70.34;97493.59;10293590;28;96764;-67
2021/12/18 14:52:29;;;;;;;30.60;17.35;;;;;;;2.53;70.20;97498.28;10294432;28;102311;-66
2021/12/18 14:57:32;;;;;;;29.00;16.95;;;;;;;2.46;69.85;97504.63;10290010;28;97781;-67
2021/12/18 15:02:52;;;;;;;30.58;18.23;;;;;;;2.43;70.33;97497.00;10286960;28;96930;-67
2021/12/18 15:07:59;;;;;;;29.48;17.15;;;;;;;2.42;69.90;97513.38;10294133;28;97358;-67
2021/12/18 15:13:12;;;;;;;30.67;17.92;;;;;;;2.44;69.92;97504.69;10290981;28;97482;-67
2021/12/18 15:18:15;;;;;;;26.83;15.93;;;;;;;2.50;70.32;97498.41;10285069;28;97625;-67
2021/12/18 15:23:19;;;;;;;27.70;17.50;;;;;;;2.48;69.94;97507.97;10292191;28;100410;-67
2021/12/18 15:28:22;;;;;;;28.58;17.20;;;;;;;2.34;69.94;97515.44;10290911;28;96988;-67
2021/12/18 15:33:25;;;;;;;28.52;16.48;;;;;;;2.12;70.55;97518.94;10286275;28;96850;-67
2021/12/18 15:38:29;;;;;;;30.52;17.30;;;;;;;1.98;70.49;97529.00;10284545;28;98331;-67
2021/12/18 15:43:33;;;;;;;32.42;18.42;;;;;;;1.91;71.18;97531.81;10286447;28;99010;-66
2021/12/18 15:48:36;;;;;;;29.35;17.08;;;;;;;1.88;70.69;97534.50;10289989;28;98674;-66
2021/12/18 15:53:41;;;;;;;29.27;16.70;;;;;;;1.56;71.52;97544.38;10286046;28;97668;-67
2021/12/18 15:58:44;;;;;;;29.77;16.50;;;;;;;1.34;71.60;97548.66;10289203;28;97719;-66
2021/12/18 16:03:48;;;;;;;31.98;16.05;;;;;;;1.07;72.73;97551.41;10282542;28;100848;-67
2021/12/18 16:08:52;;;;;;;31.70;16.88;;;;;;;1.03;72.24;97547.25;10279038;28;103330;-67
2021/12/18 16:13:55;;;;;;;29.13;15.75;;;;;;;1.01;72.25;97561.06;10282125;28;98746;-67
2021/12/18 16:18:59;;;;;;;27.75;15.75;;;;;;;0.78;72.86;97561.00;10288761;28;96741;-67
2021/12/18 16:24:04;;;;;;;33.45;18.67;;;;;;;0.62;73.20;97570.16;10287814;28;96895;-67
2021/12/18 16:29:07;;;;;;;25.23;14.18;;;;;;;0.33;73.11;97559.16;10281199;28;98718;-66
2021/12/18 16:34:09;;;;;;;29.00;15.80;;;;;;;0.16;74.24;97569.16;10287755;28;97641;-66
2021/12/18 16:39:14;;;;;;;25.67;14.98;;;;;;;-0.01;74.26;97574.84;10286150;28;97802;-67
2021/12/18 16:44:17;;;;;;;28.30;16.20;;;;;;;-0.10;74.28;97575.16;10282743;28;98213;-66
2021/12/18 16:49:20;;;;;;;33.85;18.40;;;;;;;-0.22;73.92;97581.50;10292842;28;96730;-67
2021/12/18 16:54:24;;;;;;;31.00;16.77;;;;;;;-0.23;74.50;97580.66;10289252;28;98531;-67
2021/12/18 16:59:27;;;;;;;30.20;15.73;;;;;;;-0.25;74.46;97581.59;10286729;28;96877;-67
2021/12/18 17:04:30;;;;;;;25.63;14.38;;;;;;;-0.36;74.84;97587.06;10286600;28;99375;-66
2021/12/18 17:09:34;;;;;;;29.75;15.45;;;;;;;-0.46;74.67;97588.25;10284710;28;97010;-66
2021/12/18 17:14:37;;;;;;;27.35;15.88;;;;;;;-0.55;74.98;97589.34;10291514;28;96908;-67
2021/12/18 17:19:39;;;;;;;26.90;15.25;;;;;;;-0.45;74.30;97595.91;10291704;28;98449;-67
2021/12/18 17:24:44;;;;;;;28.30;16.67;;;;;;;-0.42;74.74;97587.28;10286554;28;96753;-67
2021/12/18 17:29:46;;;;;;;35.67;19.83;;;;;;;-0.45;74.53;97595.91;10288162;28;97092;-67
2021/12/18 17:34:50;;;;;;;37.78;21.38;;;;;;;-0.45;74.49;97606.16;10293906;28;97166;-66
2021/12/18 17:39:54;;;;;;;46.00;26.27;;;;;;;-0.56;74.34;97600.53;10290537;28;97275;-66
2021/12/18 17:44:57;;;;;;;43.22;22.90;;;;;;;-0.78;75.67;97605.44;10299397;28;97017;-67
2021/12/18 17:50:01;;;;;;;50.78;24.35;;;;;;;-0.96;75.83;97617.06;10299332;28;97616;-67
2021/12/18 17:55:07;;;;;;;42.63;23.70;;;;;;;-1.10;76.97;97608.03;10286106;28;98330;-66
2021/12/18 18:00:13;;;;;;;38.85;22.52;;;;;;;-1.03;75.65;97608.72;10289051;28;99341;-66
2021/12/18 18:05:17;;;;;;;41.53;22.17;;;;;;;-1.04;76.50;97612.16;10301414;28;97371;-67
2021/12/18 18:10:32;;;;;;;42.78;23.50;;;;;;;-1.16;76.39;97618.44;10312557;28;96826;-67
2021/12/18 18:15:35;;;;;;;39.70;22.42;;;;;;;-1.18;77.13;97611.69;10319270;28;99494;-66
2021/12/18 18:20:39;;;;;;;42.67;24.55;;;;;;;-1.14;76.46;97608.97;10291953;28;96817;-67
2021/12/18 18:25:44;;;;;;;42.25;22.05;;;;;;;-1.09;76.64;97614.81;10301052;28;96838;-67
2021/12/18 18:30:47;;;;;;;;;;;;;;;-1.06;76.10;97608.78;10301202;28;101387;-66
2021/12/18 18:35:58;;;;;;;36.20;20.23;;;;;;;-1.14;75.76;97611.53;10296232;28;96779;-67
2021/12/18 18:41:07;;;;;;;36.63;20.05;;;;;;;-1.25;75.54;97613.56;10292077;28;97864;-66
2021/12/18 18:46:15;;;;;;;36.72;20.02;;;;;;;-1.43;76.76;97608.94;10305923;28;97495;-66
2021/12/18 18:51:21;;;;;;;37.45;20.67;;;;;;;-1.38;76.79;97617.34;10296678;28;99069;-67
2021/12/18 18:56:26;;;;;;;39.63;20.92;;;;;;;-1.43;75.89;97619.19;10291538;28;98643;-67
2021/12/18 19:01:30;;;;;;;41.75;21.80;;;;;;;-1.39;76.90;97618.25;10305816;28;97513;-66
2021/12/18 19:06:33;;;;;;;35.05;19.60;;;;;;;-1.68;76.87;97623.22;10305853;28;101396;-66
2021/12/18 19:11:37;;;;;;;46.90;23.95;;;;;;;-1.87;76.94;97620.25;10298608;28;96929;-67
2021/12/18 19:16:41;;;;;;;36.72;20.20;;;;;;;-1.77;77.91;97609.81;10305765;28;97643;-67
2021/12/18 19:21:44;;;;;;;42.28;21.95;;;;;;;-1.65;76.83;97606.94;10301702;28;96809;-67
2021/12/18 19:26:49;;;;;;;38.30;20.27;;;;;;;-1.58;77.08;97607.63;10286955;28;96968;-67
2021/12/18 19:31:52;;;;;;;37.67;20.23;;;;;;;-1.67;76.71;97606.13;10306546;28;103652;-67
2021/12/18 19:36:55;;;;;;;36.78;21.45;;;;;;;-1.65;77.46;97610.34;10299288;28;101042;-67
2021/12/18 19:42:00;;;;;;;37.45;21.60;;;;;;;-1.62;76.65;97606.88;10295349;28;96775;-66
2021/12/18 19:47:04;;;;;;;42.03;24.23;;;;;;;-1.60;76.51;97607.66;10307682;28;97405;-66
2021/12/18 19:52:07;;;;;;;50.58;24.73;;;;;;;-1.73;77.55;97619.91;10293524;28;96712;-67
2021/12/18 19:57:11;;;;;;;62.83;36.10;;;;;;;-1.80;76.69;97620.13;10285146;28;97360;-67
2021/12/18 20:02:30;;;;;;;64.35;31.90;;;;;;;-1.72;76.70;97620.78;10319423;28;97384;-67
2021/12/18 20:07:34;;;;;;;63.38;32.33;;;;;;;-1.69;76.78;97618.97;10299235;28;97120;-67
2021/12/18 20:12:39;;;;;;;44.30;22.15;;;;;;;-1.81;76.48;97628.69;10290147;28;97891;-67
2021/12/18 20:17:45;;;;;;;42.70;21.23;;;;;;;-2.10;77.63;97625.13;10293553;28;97048;-67
2021/12/18 20:22:49;;;;;;;37.47;19.92;;;;;;;-2.20;78.14;97624.47;10299722;28;96861;-67
2021/12/18 20:27:53;;;;;;;35.75;20.80;;;;;;;-2.15;78.51;97624.38;10304012;28;99817;-66
2021/12/18 20:32:56;;;;;;;32.25;16.92;;;;;;;-2.28;78.79;97637.47;10301877;28;96893;-67
2021/12/18 20:38:00;;;;;;;26.67;14.65;;;;;;;-2.39;79.00;97636.00;10302356;28;99124;-67
2021/12/18 20:43:05;;;;;;;30.02;15.90;;;;;;;-2.28;78.45;97637.47;10294093;28;99163;-67
2021/12/18 20:48:08;;;;;;;31.27;16.73;;;;;;;-2.15;77.89;97639.75;10294264;28;96990;-68
2021/12/18 20:53:11;;;;;;;29.67;16.13;;;;;;;-2.25;77.71;97637.38;10292859;28;97251;-67
2021/12/18 20:58:15;;;;;;;30.23;16.30;;;;;;;-2.41;79.14;97633.47;10296563;28;98670;-67
2021/12/18 21:03:18;;;;;;;31.50;18.23;;;;;;;-2.35;78.36;97633.34;10310766;28;97367;-67
2021/12/18 21:08:21;;;;;;;29.08;15.88;;;;;;;-2.22;78.25;97629.63;10293023;28;96757;-67
2021/12/18 21:13:27;;;;;;;38.83;20.20;;;;;;;-2.24;78.40;97628.81;10317761;28;96790;-67
2021/12/18 21:18:31;;;;;;;32.00;18.35;;;;;;;-2.22;78.21;97619.38;10299930;28;97841;-67
2021/12/18 21:23:35;;;;;;;30.73;16.58;;;;;;;-2.15;77.72;97634.63;10299827;28;97753;-67
2021/12/18 21:28:40;;;;;;;31.33;17.58;;;;;;;-2.18;78.64;97634.69;10306204;28;96814;-68
2021/12/18 21:33:49;;;;;;;27.37;15.47;;;;;;;-2.25;77.45;97624.56;10303587;28;96740;-68
2021/12/18 21:38:52;;;;;;;33.65;17.85;;;;;;;-2.28;78.04;97629.78;10299234;28;96985;-67
2021/12/18 21:43:56;;;;;;;36.13;20.60;;;;;;;-2.29;78.27;97628.09;10306200;28;96970;-67
2021/12/18 21:48:59;;;;;;;32.13;17.33;;;;;;;-2.44;78.56;97636.09;10292722;28;96786;-67
2021/12/18 21:54:03;;;;;;;31.08;16.20;;;;;;;-2.52;79.12;97632.88;10293470;28;97036;-67
2021/12/18 21:59:08;;;;;;;33.20;18.35;;;;;;;-2.50;78.16;97623.47;10297623;28;97275;-67
2021/12/18 22:04:12;;;;;;;;;;;;;;;-2.40;77.89;97630.06;10308123;28;97358;-68
2021/12/18 22:09:15;;;;;;;32.97;17.65;;;;;;;-2.45;78.37;97642.94;10305725;28;97680;-68
2021/12/18 22:14:21;;;;;;;28.88;16.88;;;;;;;-2.56;79.03;97659.41;10292226;28;97056;-67
2021/12/18 22:19:26;;;;;;;28.88;16.75;;;;;;;-2.53;77.81;97654.22;10297141;28;97478;-68
2021/12/18 22:24:29;;;;;;;33.90;17.43;;;;;;;-2.57;78.76;97650.06;10293601;28;97245;-67
2021/12/18 22:29:34;;;;;;;36.33;18.67;;;;;;;-2.65;78.80;97655.31;10290999;28;97956;-67
2021/12/18 22:34:37;;;;;;;32.05;17.63;;;;;;;-2.57;78.29;97662.84;10290501;28;96917;-68
2021/12/18 22:39:42;;;;;;;33.22;18.30;;;;;;;-2.58;78.68;97666.28;10294175;28;96777;-68
2021/12/18 22:44:47;;;;;;;37.47;21.27;;;;;;;-2.53;79.17;97661.91;10289339;28;96778;-68
2021/12/18 22:49:49;;;;;;;49.27;26.03;;;;;;;-2.58;79.26;97661.16;10291217;28;97195;-67
2021/12/18 22:54:52;;;;;;;42.42;23.33;;;;;;;-2.58;77.91;97645.81;10289349;28;96912;-68
2021/12/18 22:59:58;;;;;;;34.60;18.55;;;;;;;-2.65;78.57;97643.34;10294909;28;97403;-67
2021/12/18 23:05:00;;;;;;;;;;;;;;;-2.65;78.44;97645.09;10290980;28;96729;-68
2021/12/18 23:10:11;;;;;;;30.42;15.52;;;;;;;-2.72;78.68;97646.91;10282895;28;98813;-67
2021/12/18 23:15:25;;;;;;;33.67;17.60;;;;;;;-2.58;79.72;97635.56;10282108;28;97026;-68
2021/12/18 23:20:38;;;;;;;28.60;16.30;;;;;;;-2.51;79.53;97624.31;10281303;28;99160;-68
2021/12/18 23:25:42;;;;;;;24.08;11.50;;;;;;;-2.53;79.54;97636.31;10279209;28;99366;-68
2021/12/18 23:30:46;;;;;;;25.08;12.20;;;;;;;-2.47;79.13;97623.38;10286391;28;96985;-68
2021/12/18 23:35:50;;;;;;;23.75;12.85;;;;;;;-2.35;79.87;97625.69;10286565;28;98668;-68
2021/12/18 23:40:59;;;;;;;25.95;14.23;;;;;;;-2.26;79.10;97622.06;10289617;28;99184;-68
2021/12/18 23:51:25;;;;;;;31.17;14.93;;;;;;;-1.95;79.25;97611.94;10281382;28;98876;-67
2021/12/18 23:56:28;;;;;;;26.75;14.20;;;;;;;-1.87;79.59;97604.91;10285582;28;98737;-69
